createdAt,value
2023-02-22T00:01:35.629Z,11.50
2023-02-22T00:04:07.026Z,8.88
2023-02-22T00:06:34.146Z,6.55
2023-02-22T00:09:02.612Z,6.93
2023-02-22T00:11:31.707Z,8.63
2023-02-22T00:13:58.938Z,5.80
2023-02-22T00:16:26.802Z,9.43
2023-02-22T00:18:54.593Z,5.55
2023-02-22T00:21:22.404Z,10.25
2023-02-22T00:23:49.934Z,7.32
2023-02-22T00:26:23.421Z,5.68
2023-02-22T00:28:54.592Z,7.07
2023-02-22T00:31:21.879Z,7.10
2023-02-22T00:33:49.719Z,8.93
2023-02-22T00:36:17.464Z,4.85
2023-02-22T00:38:44.303Z,8.50
2023-02-22T00:41:12.229Z,6.78
2023-02-22T00:43:39.067Z,6.30
2023-02-22T00:46:06.259Z,6.57
2023-02-22T00:48:33.078Z,9.55
2023-02-22T00:51:00.003Z,8.48
2023-02-22T00:53:26.923Z,9.15
2023-02-22T00:55:54.352Z,9.43
2023-02-22T00:58:21.831Z,5.38
2023-02-22T01:00:48.964Z,6.57
2023-02-22T01:03:18.225Z,6.28
2023-02-22T01:05:45.606Z,7.07
2023-02-22T01:08:15.578Z,9.90
2023-02-22T01:10:42.908Z,6.57
2023-02-22T01:13:12.590Z,6.50
2023-02-22T01:15:42.045Z,7.75
2023-02-22T01:18:09.779Z,9.00
2023-02-22T01:20:37.364Z,8.65
2023-02-22T01:23:07.905Z,6.75
2023-02-22T01:25:35.870Z,8.93
2023-02-22T01:28:05.736Z,8.82
2023-02-22T01:30:35.252Z,15.90
2023-02-22T01:33:04.324Z,20.08
2023-02-22T01:35:35.324Z,21.58
2023-02-22T01:38:02.725Z,13.55
2023-02-22T01:40:32.991Z,27.42
2023-02-22T01:43:02.365Z,31.45
2023-02-22T01:45:34.633Z,31.38
2023-02-22T01:48:13.387Z,39.83
2023-02-22T01:50:47.665Z,32.58
2023-02-22T01:53:18.241Z,6.53
2023-02-22T01:55:47.974Z,8.20
2023-02-22T01:58:18.762Z,7.45
2023-02-22T02:00:45.917Z,5.47
2023-02-22T02:03:18.432Z,7.70
2023-02-22T02:05:46.111Z,6.38
2023-02-22T02:08:24.332Z,7.43
2023-02-22T02:10:53.711Z,5.43
2023-02-22T02:13:20.654Z,7.30
2023-02-22T02:15:49.901Z,7.18
2023-02-22T02:18:16.764Z,10.07
2023-02-22T02:21:08.176Z,7.80
2023-02-22T02:24:05.057Z,5.85
2023-02-22T02:26:53.776Z,4.45
2023-02-22T02:29:43.570Z,6.45
2023-02-22T02:32:44.605Z,6.90
2023-02-22T02:36:11.889Z,4.70
2023-02-22T02:38:59.308Z,11.07
2023-02-22T02:41:46.644Z,5.50
2023-02-22T02:44:29.147Z,6.70
2023-02-22T02:47:03.091Z,5.75
2023-02-22T02:49:39.857Z,5.25
2023-02-22T02:52:11.462Z,12.50
2023-02-22T02:54:40.121Z,21.15
2023-02-22T02:57:09.482Z,15.57
2023-02-22T02:59:38.439Z,13.27
2023-02-22T03:02:34.362Z,17.52
2023-02-22T03:05:07.547Z,15.55
2023-02-22T03:08:04.835Z,16.63
2023-02-22T03:10:52.665Z,9.20
2023-02-22T03:13:48.578Z,7.35
2023-02-22T03:16:19.796Z,7.28
2023-02-22T03:18:55.583Z,10.88
2023-02-22T03:21:41.398Z,6.22
2023-02-22T03:24:14.340Z,5.85
2023-02-22T03:26:46.556Z,5.95
2023-02-22T03:29:17.959Z,6.00
2023-02-22T03:31:51.170Z,7.07
2023-02-22T03:34:27.912Z,5.93
2023-02-22T03:37:06.594Z,5.05
2023-02-22T03:39:36.908Z,5.40
2023-02-22T03:42:13.867Z,5.82
2023-02-22T03:44:43.891Z,4.22
2023-02-22T03:47:19.407Z,4.13
2023-02-22T03:49:53.969Z,12.77
2023-02-22T03:52:23.524Z,4.90
2023-02-22T03:54:54.948Z,5.90
2023-02-22T03:57:37.506Z,4.57
2023-02-22T04:00:08.965Z,6.22
2023-02-22T04:02:44.824Z,6.28
2023-02-22T04:05:18.297Z,6.45
2023-02-22T04:07:45.705Z,5.15
2023-02-22T04:10:16.063Z,6.53
2023-02-22T04:12:43.774Z,4.90
2023-02-22T04:15:15.582Z,9.70
2023-02-22T04:17:43.629Z,10.70
2023-02-22T04:20:13.822Z,10.48
2023-02-22T04:22:48.655Z,6.10
2023-02-22T04:25:16.097Z,9.38
2023-02-22T04:27:43.772Z,8.10
2023-02-22T04:30:12.373Z,7.93
2023-02-22T04:32:39.699Z,11.18
2023-02-22T04:35:07.964Z,9.85
2023-02-22T04:37:35.357Z,6.93
2023-02-22T04:40:08.981Z,7.18
2023-02-22T04:42:37.201Z,10.80
2023-02-22T04:45:06.121Z,8.82
2023-02-22T04:47:33.634Z,8.20
2023-02-22T04:50:00.972Z,5.80
2023-02-22T04:52:29.594Z,4.28
2023-02-22T04:54:57.015Z,6.72
2023-02-22T04:57:24.573Z,13.65
2023-02-22T04:59:51.412Z,11.02
2023-02-22T05:02:19.877Z,9.05
2023-02-22T05:04:46.710Z,8.40
2023-02-22T05:07:13.618Z,12.60
2023-02-22T05:09:40.794Z,12.50
2023-02-22T05:12:07.817Z,11.45
2023-02-22T05:14:35.532Z,15.07
2023-02-22T05:17:03.550Z,20.13
2023-02-22T05:19:30.767Z,16.02
2023-02-22T05:21:57.799Z,25.38
2023-02-22T05:24:24.897Z,19.65
2023-02-22T05:26:53.268Z,14.65
2023-02-22T05:29:21.117Z,17.42
2023-02-22T05:31:48.215Z,6.63
2023-02-22T05:34:15.684Z,7.43
2023-02-22T05:36:42.653Z,11.50
2023-02-22T05:39:09.977Z,9.05
2023-02-22T05:41:36.784Z,19.92
2023-02-22T05:44:04.099Z,12.25
2023-02-22T05:46:31.116Z,11.48
2023-02-22T05:48:58.501Z,15.45
2023-02-22T05:51:25.475Z,10.10
2023-02-22T05:53:52.633Z,5.68
2023-02-22T05:56:29.025Z,7.03
2023-02-22T05:58:56.975Z,6.65
2023-02-22T06:01:24.162Z,9.48
2023-02-22T06:03:51.936Z,4.88
2023-02-22T06:06:22.276Z,6.68
2023-02-22T06:08:49.895Z,5.60
2023-02-22T06:11:17.116Z,6.25
2023-02-22T06:13:53.020Z,5.30
2023-02-22T06:16:22.520Z,5.75
2023-02-22T06:18:50.325Z,4.25
2023-02-22T06:21:18.040Z,4.13
2023-02-22T06:23:45.316Z,3.67
2023-02-22T06:26:13.025Z,3.55
2023-02-22T06:28:39.867Z,4.90
2023-02-22T06:31:06.934Z,6.25
2023-02-22T06:33:33.807Z,7.38
2023-02-22T06:36:01.305Z,4.43
2023-02-22T06:38:29.440Z,7.15
2023-02-22T06:40:56.547Z,4.78
2023-02-22T06:43:24.961Z,5.85
2023-02-22T06:45:52.876Z,5.75
2023-02-22T06:48:19.865Z,5.45
2023-02-22T06:50:46.978Z,6.03
2023-02-22T06:53:13.781Z,5.57
2023-02-22T06:55:40.873Z,5.93
2023-02-22T06:58:07.644Z,4.78
2023-02-22T07:00:34.770Z,4.30
2023-02-22T07:03:03.959Z,4.88
2023-02-22T07:05:31.112Z,5.78
2023-02-22T07:08:04.546Z,5.80
2023-02-22T07:10:33.531Z,5.15
2023-02-22T07:13:01.242Z,6.95
2023-02-22T07:15:30.703Z,4.63
2023-02-22T07:17:57.920Z,5.18
2023-02-22T07:20:27.167Z,5.60
2023-02-22T07:22:54.383Z,5.32
2023-02-22T07:25:23.229Z,5.63
2023-02-22T07:27:52.500Z,6.68
2023-02-22T07:30:31.126Z,4.32
2023-02-22T07:33:01.161Z,4.00
2023-02-22T07:35:33.807Z,7.50
2023-02-22T07:38:00.880Z,5.78
2023-02-22T07:40:28.462Z,5.82
2023-02-22T07:43:01.221Z,6.28
2023-02-22T07:45:35.886Z,7.35
2023-02-22T07:48:04.308Z,6.80
2023-02-22T07:50:32.468Z,5.97
2023-02-22T07:53:03.149Z,5.85
2023-02-22T07:55:32.316Z,8.10
2023-02-22T07:58:02.311Z,4.13
2023-02-22T08:00:35.114Z,8.27
2023-02-22T08:03:05.029Z,5.20
2023-02-22T08:05:33.747Z,4.70
2023-02-22T08:08:00.571Z,4.97
2023-02-22T08:10:28.523Z,3.75
2023-02-22T08:12:56.043Z,4.80
2023-02-22T08:15:34.932Z,5.72
2023-02-22T08:18:04.036Z,5.03
2023-02-22T08:20:31.372Z,6.68
2023-02-22T08:22:59.130Z,6.05
2023-02-22T08:25:29.553Z,12.43
2023-02-22T08:28:08.922Z,4.38
2023-02-22T08:30:40.081Z,8.90
2023-02-22T08:33:07.710Z,5.32
2023-02-22T08:35:35.055Z,6.85
2023-02-22T08:38:05.535Z,5.88
2023-02-22T08:40:35.186Z,4.15
2023-02-22T08:43:03.452Z,8.65
2023-02-22T08:45:30.685Z,4.65
2023-02-22T08:47:58.604Z,3.17
2023-02-22T08:50:33.591Z,7.10
2023-02-22T08:53:02.306Z,3.28
2023-02-22T08:55:32.392Z,9.15
2023-02-22T08:58:03.174Z,4.28
2023-02-22T09:00:33.297Z,3.90
2023-02-22T09:03:02.216Z,3.10
2023-02-22T09:05:31.459Z,5.03
2023-02-22T09:07:59.354Z,4.53
2023-02-22T09:10:29.364Z,4.47
2023-02-22T09:12:57.180Z,3.25
2023-02-22T09:15:25.903Z,10.50
2023-02-22T09:17:53.609Z,6.72
2023-02-22T09:20:22.376Z,4.13
2023-02-22T09:22:50.140Z,4.15
2023-02-22T09:25:18.333Z,5.13
2023-02-22T09:27:51.747Z,6.90
2023-02-22T09:30:23.985Z,3.17
2023-02-22T09:32:53.334Z,4.35
2023-02-22T09:35:26.963Z,4.10
2023-02-22T09:37:58.509Z,2.45
2023-02-22T09:43:21.241Z,5.10
2023-02-22T09:46:26.918Z,3.45
2023-02-22T09:49:00.091Z,2.50
2023-02-22T09:51:49.415Z,3.95
2023-02-22T09:54:29.753Z,7.50
2023-02-22T09:57:00.719Z,3.83
2023-02-22T09:59:32.048Z,3.85
2023-02-22T10:02:32.782Z,3.47
2023-02-22T10:05:12.203Z,2.10
2023-02-22T10:07:47.184Z,3.28
2023-02-22T10:10:20.945Z,3.85
2023-02-22T10:12:56.959Z,3.22
2023-02-22T10:15:35.845Z,1.27
2023-02-22T10:18:32.935Z,1.23
2023-02-22T10:21:11.878Z,1.75
2023-02-22T10:23:47.302Z,7.22
2023-02-22T10:26:14.059Z,3.45
2023-02-22T10:28:55.375Z,1.65
2023-02-22T10:31:33.894Z,1.48
2023-02-22T10:34:03.311Z,2.38
2023-02-22T10:36:30.432Z,5.07
2023-02-22T10:39:12.355Z,1.70
2023-02-22T10:41:49.349Z,3.28
2023-02-22T10:44:19.160Z,4.20
2023-02-22T10:46:47.470Z,2.20
2023-02-22T10:49:21.922Z,3.53
2023-02-22T10:52:01.197Z,4.20
2023-02-22T10:54:40.584Z,1.90
2023-02-22T10:57:07.861Z,3.03
2023-02-22T10:59:40.165Z,1.90
2023-02-22T11:02:29.642Z,1.73
2023-02-22T11:05:01.441Z,3.15
2023-02-22T11:07:28.577Z,1.55
2023-02-22T11:10:08.246Z,1.50
2023-02-22T11:12:37.753Z,5.40
2023-02-22T11:15:22.558Z,3.65
2023-02-22T11:17:52.563Z,5.00
2023-02-22T11:20:25.726Z,4.32
2023-02-22T11:23:02.004Z,1.70
2023-02-22T11:25:33.797Z,3.20
2023-02-22T11:28:16.718Z,2.53
2023-02-22T11:30:49.712Z,4.60
2023-02-22T11:33:17.060Z,4.32
2023-02-22T11:35:52.831Z,2.70
2023-02-22T11:38:21.315Z,2.15
2023-02-22T11:41:07.991Z,1.42
2023-02-22T11:43:35.495Z,3.60
2023-02-22T11:46:08.373Z,3.05
2023-02-22T11:48:39.678Z,1.08
2023-02-22T11:51:14.810Z,8.45
2023-02-22T11:54:22.726Z,1.60
2023-02-22T11:56:55.733Z,2.10
2023-02-22T11:59:40.886Z,5.13
2023-02-22T12:02:57.354Z,3.40
2023-02-22T12:05:37.453Z,1.35
2023-02-22T12:08:26.993Z,1.90
2023-02-22T12:11:10.251Z,1.48
2023-02-22T12:14:09.795Z,1.83
2023-02-22T12:17:23.524Z,1.13
2023-02-22T12:19:52.739Z,2.17
2023-02-22T12:22:25.989Z,4.43
2023-02-22T12:25:08.542Z,4.38
2023-02-22T12:27:42.414Z,9.40
2023-02-22T12:30:16.595Z,1.17
2023-02-22T12:32:48.704Z,2.67
2023-02-22T12:35:19.513Z,6.72
2023-02-22T12:38:01.914Z,3.85
2023-02-22T12:40:54.665Z,2.88
2023-02-22T12:43:47.436Z,1.40
2023-02-22T12:46:35.398Z,2.08
2023-02-22T12:49:42.764Z,2.10
2023-02-22T12:52:22.344Z,2.80
2023-02-22T12:55:02.162Z,0.98
2023-02-22T12:57:51.840Z,2.33
2023-02-22T13:00:28.834Z,3.97
2023-02-22T13:03:17.746Z,5.55
2023-02-22T13:05:51.490Z,2.15
2023-02-22T13:08:18.721Z,4.97
2023-02-22T13:11:04.626Z,2.67
2023-02-22T13:13:41.696Z,2.95
2023-02-22T13:16:21.923Z,1.27
2023-02-22T13:19:00.644Z,2.65
2023-02-22T13:21:37.188Z,3.33
2023-02-22T13:24:33.946Z,1.60
2023-02-22T13:27:06.757Z,1.95
2023-02-22T13:29:41.724Z,3.88
2023-02-22T13:32:13.704Z,1.83
2023-02-22T13:35:18.261Z,3.10
2023-02-22T13:38:16.838Z,3.47
2023-02-22T13:41:19.147Z,2.00
2023-02-22T13:44:15.154Z,3.50
2023-02-22T13:46:57.127Z,2.60
2023-02-22T13:49:52.083Z,2.40
2023-02-22T13:52:24.776Z,4.30
2023-02-22T13:54:58.018Z,5.25
2023-02-22T13:57:33.543Z,3.35
2023-02-22T14:00:15.750Z,6.35
2023-02-22T14:03:02.829Z,2.22
2023-02-22T14:05:42.529Z,6.20
2023-02-22T14:08:37.109Z,4.15
2023-02-22T14:11:14.148Z,5.25
2023-02-22T14:14:00.853Z,3.20
2023-02-22T14:16:31.959Z,1.73
2023-02-22T14:19:13.505Z,6.53
2023-02-22T14:22:04.335Z,2.95
2023-02-22T14:24:46.963Z,3.75
2023-02-22T14:27:17.680Z,1.70
2023-02-22T14:30:01.464Z,2.23
2023-02-22T14:32:34.545Z,5.70
2023-02-22T14:35:25.498Z,2.05
2023-02-22T14:37:58.344Z,1.85
2023-02-22T14:40:34.983Z,2.50
2023-02-22T14:43:12.853Z,12.45
2023-02-22T14:46:01.787Z,1.77
2023-02-22T14:48:45.085Z,4.20
2023-02-22T14:51:26.864Z,4.82
2023-02-22T14:54:20.648Z,6.22
2023-02-22T14:57:12.247Z,4.28
2023-02-22T14:59:53.257Z,1.95
2023-02-22T15:02:26.076Z,2.97
2023-02-22T15:04:56.565Z,2.58
2023-02-22T15:07:30.731Z,4.13
2023-02-22T15:10:41.677Z,2.55
2023-02-22T15:13:28.033Z,2.53
2023-02-22T15:16:02.111Z,4.93
2023-02-22T15:18:40.687Z,6.95
2023-02-22T15:21:13.437Z,4.82
2023-02-22T15:23:57.147Z,10.63
2023-02-22T15:26:31.615Z,7.00
2023-02-22T15:28:59.959Z,5.95
2023-02-22T15:31:30.453Z,6.30
2023-02-22T15:33:58.185Z,12.63
2023-02-22T15:36:33.772Z,5.97
2023-02-22T15:39:01.188Z,5.43
2023-02-22T15:41:34.138Z,5.60
2023-02-22T15:44:28.005Z,5.10
2023-02-22T15:46:56.621Z,18.35
2023-02-22T15:49:24.815Z,11.02
2023-02-22T15:52:04.117Z,12.80
2023-02-22T15:54:42.729Z,6.78
2023-02-22T15:57:14.589Z,9.10
2023-02-22T15:59:45.645Z,7.47
2023-02-22T16:02:32.750Z,13.30
2023-02-22T16:05:07.199Z,7.72
2023-02-22T16:07:45.316Z,8.23
2023-02-22T16:10:27.533Z,13.38
2023-02-22T16:13:06.666Z,14.07
2023-02-22T16:15:35.844Z,29.48
2023-02-22T16:18:26.089Z,19.40
2023-02-22T16:21:21.654Z,21.65
2023-02-22T16:23:55.971Z,14.60
2023-02-22T16:26:34.383Z,27.80
2023-02-22T16:29:08.732Z,31.60
2023-02-22T16:31:40.208Z,26.70
2023-02-22T16:34:08.430Z,23.42
2023-02-22T16:36:45.566Z,27.60
2023-02-22T16:39:31.448Z,33.10
2023-02-22T16:42:06.082Z,36.40
2023-02-22T16:44:34.729Z,33.70
2023-02-22T16:47:01.690Z,49.60
2023-02-22T16:49:28.601Z,52.33
2023-02-22T16:52:01.770Z,52.40
2023-02-22T16:54:34.341Z,45.38
2023-02-22T16:57:04.061Z,56.63
2023-02-22T16:59:39.270Z,48.63
2023-02-22T17:02:07.747Z,46.17
2023-02-22T17:04:34.788Z,45.22
2023-02-22T17:07:05.106Z,50.00
2023-02-22T17:09:33.181Z,47.13
2023-02-22T17:12:00.835Z,49.03
2023-02-22T17:14:32.466Z,50.08
2023-02-22T17:17:00.298Z,62.58
2023-02-22T17:19:27.714Z,66.25
2023-02-22T17:21:54.869Z,55.17
2023-02-22T17:24:25.012Z,47.45
2023-02-22T17:26:54.891Z,46.38
2023-02-22T17:29:21.937Z,86.30
2023-02-22T17:31:49.320Z,54.78
2023-02-22T17:34:21.836Z,53.25
2023-02-22T17:36:49.402Z,36.03
2023-02-22T17:39:16.537Z,26.88
2023-02-22T17:41:43.470Z,56.92
2023-02-22T17:44:10.299Z,30.73
2023-02-22T17:46:37.562Z,34.60
2023-02-22T17:49:04.603Z,36.10
2023-02-22T17:51:31.627Z,32.72
2023-02-22T17:54:01.155Z,16.15
2023-02-22T17:56:28.233Z,10.75
2023-02-22T17:58:55.699Z,19.05
2023-02-22T18:01:29.034Z,15.93
2023-02-22T18:03:59.664Z,20.73
2023-02-22T18:06:30.002Z,19.10
2023-02-22T18:08:58.920Z,18.77
2023-02-22T18:11:28.142Z,13.02
2023-02-22T18:13:57.482Z,18.40
2023-02-22T18:16:26.142Z,13.32
2023-02-22T18:18:56.011Z,11.70
2023-02-22T18:21:23.769Z,13.80
2023-02-22T18:23:50.854Z,12.07
2023-02-22T18:26:19.698Z,19.05
2023-02-22T18:28:49.196Z,19.52
2023-02-22T18:31:18.470Z,15.20
2023-02-22T18:33:48.230Z,17.65
2023-02-22T18:36:16.765Z,13.38
2023-02-22T18:38:44.625Z,6.55
2023-02-22T18:41:16.234Z,6.65
2023-02-22T18:43:44.112Z,11.10
2023-02-22T18:46:13.825Z,8.02
2023-02-22T18:48:41.578Z,17.55
2023-02-22T18:51:11.352Z,12.38
2023-02-22T18:53:41.608Z,14.85
2023-02-22T18:56:11.861Z,17.00
2023-02-22T18:58:39.344Z,12.63
2023-02-22T19:01:07.611Z,10.57
2023-02-22T19:03:38.242Z,9.52
2023-02-22T19:06:09.876Z,13.02
2023-02-22T19:08:39.688Z,5.97
2023-02-22T19:11:12.935Z,9.50
2023-02-22T19:13:39.884Z,8.75
2023-02-22T19:16:07.545Z,5.97
2023-02-22T19:18:35.023Z,14.20
2023-02-22T19:21:03.750Z,14.73
2023-02-22T19:23:34.523Z,8.48
2023-02-22T19:26:04.333Z,11.50
2023-02-22T19:28:36.974Z,6.22
2023-02-22T19:31:18.668Z,7.93
2023-02-22T19:33:47.586Z,6.97
2023-02-22T19:36:15.675Z,7.88
2023-02-22T19:38:43.422Z,8.73
2023-02-22T19:41:22.183Z,48.70
2023-02-22T19:43:51.808Z,51.35
2023-02-22T19:46:21.222Z,27.95
2023-02-22T19:48:49.259Z,25.83
2023-02-22T19:51:18.243Z,24.65
2023-02-22T19:53:46.320Z,13.38
2023-02-22T19:56:16.855Z,12.35
2023-02-22T19:58:45.521Z,21.20
2023-02-22T20:01:22.889Z,20.35
2023-02-22T20:03:54.579Z,51.60
2023-02-22T20:06:26.465Z,37.72
2023-02-22T20:08:54.932Z,30.00
2023-02-22T20:11:23.491Z,25.98
2023-02-22T20:13:50.676Z,29.38
2023-02-22T20:16:17.931Z,22.58
2023-02-22T20:18:46.370Z,23.50
2023-02-22T20:21:20.502Z,26.98
2023-02-22T20:23:48.117Z,21.85
2023-02-22T20:29:31.583Z,17.63
2023-02-22T20:32:11.415Z,17.80
2023-02-22T20:34:38.714Z,33.05
2023-02-22T20:37:05.473Z,77.85
2023-02-22T20:39:32.713Z,51.85
2023-02-22T20:42:04.695Z,41.83
2023-02-22T20:44:31.722Z,40.90
2023-02-22T20:46:58.787Z,44.38
2023-02-22T20:49:27.277Z,27.60
2023-02-22T20:51:54.070Z,42.88
2023-02-22T20:54:21.082Z,13.60
2023-02-22T20:56:48.453Z,16.85
2023-02-22T20:59:18.420Z,15.35
2023-02-22T21:01:47.565Z,11.57
2023-02-22T21:04:14.794Z,15.15
2023-02-22T21:06:41.915Z,13.23
2023-02-22T21:09:16.288Z,18.05
2023-02-22T21:11:44.267Z,22.15
2023-02-22T21:14:16.783Z,25.38
2023-02-22T21:16:46.581Z,34.92
2023-02-22T21:19:28.038Z,25.02
2023-02-22T21:24:29.579Z,25.55
2023-02-22T21:26:59.096Z,19.48
2023-02-22T21:29:27.113Z,6.97
2023-02-22T21:31:54.140Z,9.80
2023-02-22T21:34:22.357Z,6.80
2023-02-22T21:36:51.175Z,10.85
2023-02-22T21:39:18.207Z,6.68
2023-02-22T21:41:47.059Z,8.93
2023-02-22T21:44:15.063Z,6.53
2023-02-22T21:46:42.205Z,11.43
2023-02-22T21:49:11.182Z,11.75
2023-02-22T21:51:38.289Z,9.70
2023-02-22T21:54:08.361Z,20.67
2023-02-22T21:56:41.324Z,18.83
2023-02-22T21:59:15.228Z,14.48
2023-02-22T22:01:50.136Z,10.05
2023-02-22T22:04:20.424Z,14.00
2023-02-22T22:06:50.972Z,10.15
2023-02-22T22:09:19.605Z,9.15
2023-02-22T22:11:49.705Z,13.50
2023-02-22T22:14:19.026Z,8.23
2023-02-22T22:16:47.998Z,10.50
2023-02-22T22:19:15.447Z,10.63
2023-02-22T22:21:42.908Z,13.93
2023-02-22T22:24:13.640Z,9.82
2023-02-22T22:26:40.857Z,10.82
2023-02-22T22:29:10.482Z,18.83
2023-02-22T22:31:38.049Z,14.50
2023-02-22T22:34:05.716Z,8.32
2023-02-22T22:36:34.454Z,13.18
2023-02-22T22:39:01.540Z,13.60
2023-02-22T22:41:28.505Z,6.93
2023-02-22T22:43:55.968Z,12.63
2023-02-22T22:46:23.611Z,14.45
2023-02-22T22:48:50.438Z,10.43
2023-02-22T22:51:20.951Z,9.55
2023-02-22T22:53:49.569Z,9.88
2023-02-22T22:56:17.717Z,10.15
2023-02-22T22:58:50.831Z,9.48
2023-02-22T23:01:20.542Z,9.00
2023-02-22T23:03:55.014Z,9.15
2023-02-22T23:06:24.995Z,10.77
2023-02-22T23:09:00.125Z,11.38
2023-02-22T23:11:33.868Z,6.40
2023-02-22T23:14:03.693Z,14.55
2023-02-22T23:16:34.854Z,9.52
2023-02-22T23:19:01.884Z,6.65
2023-02-22T23:21:28.709Z,9.90
2023-02-22T23:23:58.598Z,7.85
2023-02-22T23:26:26.791Z,8.38
2023-02-22T23:28:59.320Z,8.70
2023-02-22T23:31:28.985Z,6.57
2023-02-22T23:33:58.889Z,5.47
2023-02-22T23:36:27.125Z,8.90
2023-02-22T23:38:54.383Z,10.13
2023-02-22T23:41:25.039Z,8.18
2023-02-22T23:43:52.006Z,8.30
2023-02-22T23:46:19.606Z,10.98
2023-02-22T23:48:54.838Z,7.38
2023-02-22T23:51:27.052Z,6.88
2023-02-22T23:53:58.203Z,12.45
2023-02-22T23:56:27.413Z,9.68
2023-02-22T23:58:57.530Z,13.52
